LICR Airport Information

Runway Information
Runway 11 Length 5574 ft width 148 ft
Elevation 38 ft Threshold 0 ft Heading 113
Runway 29 Length 5574 ft Width 148 ft
Elevation 43 ft Threshold 0 ft Heading 293
Runway 15 Length 6549 ft width 148 ft
Elevation 84 ft Threshold 840 ft Heading 153
Runway 33 Length 6549 ft Width 148 ft
Elevation 34 ft Threshold 164 ft Heading 333
Airport Frequencies
Type APP Name APP Frequency 120.275 MHZ
Type TWR Name TWR Frequency 118.25 MHZ
Airport Navaids
Type VOR-DME Name Reggio Calabria Frequency 111000 KHZ
Type NDB Name Reggio Calabria Frequency 325 KHZ
Airport Weather Information & NOTAM
ADDS - METARS form results

(2312 UTC 16 October 2018)
Data provider http://aviationweather.gov/metar/data/
 
Forecast for: LICR (REGGIO CALABRIA , IT)
Text: TAF LICR 161700Z 1618/1718 19012KT 9999 SCT030
Forecast period: 1800 UTC 16 October 2018 to 1800 UTC 17 October 2018
Forecast type: FROM: standard forecast or significant change
Winds: from the S (190 degrees) at 14 MPH (12 knots; 6.2 m/s)
Visibility: 6 or more miles 10+ km)
Ceiling: at least 12,000 feet AGL
Clouds: scattered clouds at 3000 feet AGL
Weather: no significant weather forecast for this period
Text: TEMPO 1709/1712 SHRA
Forecast period: 0900 to 1200 UTC 17 October 2018
Forecast type: TEMPORARY: The following changes expected for less than half the time period
Visibility: missing
Ceiling: unknown
Clouds: missing
Weather: SHRA  (rain showers)